createdAt,value
2019-03-10T00:01:36.960Z,28.13
2019-03-10T00:04:11.762Z,28.07
2019-03-10T00:06:46.603Z,28.07
2019-03-10T00:09:21.352Z,28.00
2019-03-10T00:11:56.242Z,27.57
2019-03-10T00:14:31.152Z,28.40
2019-03-10T00:17:05.975Z,28.43
2019-03-10T00:19:40.723Z,28.17
2019-03-10T00:22:15.480Z,28.37
2019-03-10T00:24:50.295Z,28.20
2019-03-10T00:27:25.127Z,28.00
2019-03-10T00:30:00.007Z,28.20
2019-03-10T00:32:34.811Z,28.07
2019-03-10T00:35:09.687Z,28.27
2019-03-10T00:37:44.527Z,28.30
2019-03-10T00:40:55.786Z,28.53
2019-03-10T00:44:39.639Z,28.27
2019-03-10T00:48:10.628Z,28.07
2019-03-10T00:51:18.696Z,27.43
2019-03-10T00:53:53.552Z,27.93
2019-03-10T00:56:28.439Z,28.17
2019-03-10T00:59:03.343Z,27.73
2019-03-10T01:01:38.161Z,28.47
2019-03-10T01:04:13.107Z,28.60
2019-03-10T01:06:48.995Z,27.70
2019-03-10T01:09:23.740Z,28.07
2019-03-10T01:11:58.873Z,28.23
2019-03-10T01:14:34.260Z,28.20
2019-03-10T01:17:09.688Z,28.17
2019-03-10T01:19:44.879Z,27.97
2019-03-10T01:22:20.415Z,28.30
2019-03-10T01:24:55.253Z,27.77
2019-03-10T01:27:30.150Z,27.93
2019-03-10T01:30:06.639Z,27.83
2019-03-10T01:33:17.052Z,28.07
2019-03-10T01:35:51.802Z,28.13
2019-03-10T01:38:26.564Z,27.60
2019-03-10T01:41:01.323Z,28.90
2019-03-10T01:43:36.124Z,27.87
2019-03-10T01:46:10.939Z,28.27
2019-03-10T01:48:45.712Z,27.97
2019-03-10T01:51:20.462Z,28.03
2019-03-10T01:53:55.319Z,27.77
2019-03-10T01:56:30.081Z,28.27
2019-03-10T01:59:04.916Z,29.10
2019-03-10T02:01:39.728Z,28.33
2019-03-10T02:04:14.555Z,28.03
2019-03-10T02:06:49.303Z,27.97
2019-03-10T02:09:24.068Z,27.63
2019-03-10T02:11:58.827Z,28.10
2019-03-10T02:14:33.567Z,27.77
2019-03-10T02:17:09.291Z,28.17
2019-03-10T02:19:44.179Z,27.97
2019-03-10T02:22:19.025Z,28.10
2019-03-10T02:24:53.754Z,27.80
2019-03-10T02:27:28.596Z,28.07
2019-03-10T02:30:03.537Z,27.97
2019-03-10T02:32:39.479Z,27.90
2019-03-10T02:35:14.374Z,28.17
2019-03-10T02:37:49.210Z,27.37
2019-03-10T02:40:23.985Z,27.33
2019-03-10T02:42:58.846Z,27.60
2019-03-10T02:45:33.578Z,27.40
2019-03-10T02:48:08.390Z,27.43
2019-03-10T02:50:43.187Z,27.27
2019-03-10T02:53:17.941Z,27.83
2019-03-10T02:55:52.757Z,27.33
2019-03-10T02:58:27.527Z,27.77
2019-03-10T03:01:02.417Z,28.23
2019-03-10T03:03:38.136Z,27.23
2019-03-10T03:06:12.947Z,27.50
2019-03-10T03:08:47.716Z,27.70
2019-03-10T03:11:22.612Z,27.13
2019-03-10T03:13:57.396Z,27.43
2019-03-10T03:16:33.188Z,27.00
2019-03-10T03:19:08.136Z,27.67
2019-03-10T03:21:43.957Z,27.53
2019-03-10T03:24:18.847Z,27.97
2019-03-10T03:26:53.679Z,27.53
2019-03-10T03:29:28.449Z,27.47
2019-03-10T03:32:03.348Z,27.30
2019-03-10T03:34:38.141Z,28.07
2019-03-10T03:37:16.233Z,26.93
2019-03-10T03:39:52.996Z,27.57
2019-03-10T03:42:27.759Z,27.23
2019-03-10T03:45:02.637Z,27.43
2019-03-10T03:47:37.398Z,27.57
2019-03-10T03:50:12.295Z,27.30
2019-03-10T03:52:47.040Z,27.47
2019-03-10T03:55:22.843Z,27.50
2019-03-10T03:57:57.776Z,27.10
2019-03-10T04:00:32.586Z,28.00
2019-03-10T04:03:07.432Z,27.47
2019-03-10T04:05:42.239Z,27.60
2019-03-10T04:08:16.979Z,27.17
2019-03-10T04:10:51.802Z,27.20
2019-03-10T04:13:26.623Z,27.17
2019-03-10T04:16:02.405Z,27.57
2019-03-10T04:18:37.143Z,27.17
2019-03-10T04:21:11.892Z,27.80
2019-03-10T04:23:46.639Z,27.93
2019-03-10T04:26:21.521Z,27.63
2019-03-10T04:28:56.255Z,27.87
2019-03-10T04:31:30.982Z,28.20
2019-03-10T04:34:05.810Z,28.63
2019-03-10T04:36:40.566Z,27.27
2019-03-10T04:39:15.309Z,27.33
2019-03-10T04:41:50.147Z,27.20
2019-03-10T04:44:24.891Z,27.20
2019-03-10T04:46:59.634Z,27.13
2019-03-10T04:49:34.375Z,27.70
2019-03-10T04:52:09.128Z,27.70
2019-03-10T04:55:15.491Z,28.20
2019-03-10T04:57:58.542Z,29.87
2019-03-10T05:00:34.934Z,27.47
2019-03-10T05:03:09.646Z,27.77
2019-03-10T05:05:44.470Z,27.77
2019-03-10T05:08:19.199Z,27.03
2019-03-10T05:10:53.969Z,27.57
2019-03-10T05:13:28.834Z,27.13
2019-03-10T05:16:03.666Z,27.43
2019-03-10T05:18:38.402Z,27.40
2019-03-10T05:21:13.155Z,27.90
2019-03-10T05:23:47.923Z,27.73
2019-03-10T05:26:22.687Z,27.67
2019-03-10T05:28:57.428Z,27.30
2019-03-10T05:31:32.249Z,27.67
2019-03-10T05:34:07.048Z,28.63
2019-03-10T05:36:41.942Z,27.30
2019-03-10T05:39:16.662Z,27.03
2019-03-10T05:41:51.419Z,26.90
2019-03-10T05:44:26.251Z,27.40
2019-03-10T05:47:01.010Z,27.03
2019-03-10T05:49:35.746Z,27.03
2019-03-10T05:52:10.491Z,27.17
2019-03-10T05:54:45.234Z,27.23
2019-03-10T05:57:20.050Z,27.13
2019-03-10T05:59:54.802Z,27.37
2019-03-10T06:02:29.555Z,27.27
2019-03-10T06:05:06.020Z,27.70
2019-03-10T06:07:40.970Z,27.40
2019-03-10T06:10:15.720Z,27.23
2019-03-10T06:12:50.446Z,27.33
2019-03-10T06:15:25.262Z,27.30
2019-03-10T06:18:00.007Z,27.20
2019-03-10T06:20:35.792Z,27.17
2019-03-10T06:23:10.687Z,27.53
2019-03-10T06:25:45.430Z,27.30
2019-03-10T06:28:20.230Z,27.10
2019-03-10T06:30:56.473Z,27.27
2019-03-10T06:33:31.406Z,27.33
2019-03-10T06:36:06.269Z,27.37
2019-03-10T06:38:41.007Z,27.27
2019-03-10T06:41:15.854Z,27.23
2019-03-10T06:43:50.592Z,27.87
2019-03-10T06:46:25.354Z,28.97
2019-03-10T06:49:00.581Z,30.60
2019-03-10T06:51:35.418Z,31.27
2019-03-10T06:54:11.227Z,28.23
2019-03-10T06:56:45.968Z,28.33
2019-03-10T06:59:20.746Z,28.67
2019-03-10T07:01:55.516Z,28.90
2019-03-10T07:04:30.248Z,30.07
2019-03-10T07:07:05.066Z,31.90
2019-03-10T07:09:40.942Z,27.83
2019-03-10T07:12:15.747Z,27.87
2019-03-10T07:14:50.551Z,28.00
2019-03-10T07:17:25.355Z,27.53
2019-03-10T07:20:00.319Z,28.33
2019-03-10T07:22:35.171Z,28.10
2019-03-10T07:25:10.199Z,27.77
2019-03-10T07:27:51.518Z,28.93
2019-03-10T07:30:57.494Z,28.30
2019-03-10T07:33:50.066Z,27.50
2019-03-10T07:36:32.415Z,27.73
2019-03-10T07:39:17.739Z,28.03
2019-03-10T07:41:58.398Z,27.80
2019-03-10T07:44:38.491Z,28.17
2019-03-10T07:47:31.606Z,28.40
2019-03-10T07:50:21.614Z,28.30
2019-03-10T07:53:03.998Z,28.33
2019-03-10T07:55:56.965Z,27.47
2019-03-10T07:58:53.674Z,28.47
2019-03-10T08:02:07.466Z,28.03
2019-03-10T08:04:58.671Z,27.97
2019-03-10T08:07:44.347Z,27.63
2019-03-10T08:13:53.494Z,29.30
2019-03-10T08:16:40.168Z,28.07
2019-03-10T08:19:23.784Z,28.80
2019-03-10T08:22:23.807Z,28.77
2019-03-10T08:25:13.426Z,28.43
2019-03-10T08:28:15.634Z,27.97
2019-03-10T08:31:09.431Z,28.03
2019-03-10T08:34:13.717Z,28.67
2019-03-10T08:37:22.582Z,28.00
2019-03-10T08:40:25.555Z,27.80
2019-03-10T08:43:29.567Z,27.33
2019-03-10T08:46:22.004Z,27.63
2019-03-10T08:49:07.138Z,27.47
2019-03-10T08:51:56.235Z,27.70
2019-03-10T08:54:35.439Z,27.83
2019-03-10T08:57:23.807Z,27.63
2019-03-10T09:00:17.710Z,28.20
2019-03-10T09:03:13.709Z,27.40
2019-03-10T09:06:00.699Z,29.30
2019-03-10T09:08:46.619Z,28.87
2019-03-10T09:11:45.098Z,28.13
2019-03-10T09:14:41.729Z,28.40
2019-03-10T09:17:26.418Z,27.43
2019-03-10T09:20:14.016Z,27.30
2019-03-10T09:23:16.895Z,27.60
2019-03-10T09:26:10.888Z,27.93
2019-03-10T09:29:10.811Z,28.27
2019-03-10T09:32:07.999Z,28.93
2019-03-10T09:35:08.098Z,28.03
2019-03-10T09:37:54.683Z,27.47
2019-03-10T09:40:54.438Z,28.40
2019-03-10T09:43:46.927Z,29.00
2019-03-10T09:46:26.907Z,30.77
2019-03-10T09:49:19.456Z,28.67
2019-03-10T09:52:28.358Z,28.43
2019-03-10T09:55:11.815Z,30.17
2019-03-10T09:58:01.350Z,28.50
2019-03-10T10:00:55.967Z,28.60
2019-03-10T10:03:53.542Z,29.60
2019-03-10T10:06:54.891Z,29.13
2019-03-10T10:09:45.807Z,29.50
2019-03-10T10:12:45.826Z,29.47
2019-03-10T10:15:52.579Z,34.33
2019-03-10T10:18:51.680Z,31.10
2019-03-10T10:21:34.302Z,28.97
2019-03-10T10:24:38.486Z,28.87
2019-03-10T10:27:21.315Z,28.47
2019-03-10T10:30:20.275Z,28.20
2019-03-10T10:33:13.307Z,27.90
2019-03-10T10:36:25.658Z,27.93
2019-03-10T10:39:47.222Z,28.33
2019-03-10T10:46:29.391Z,29.97
2019-03-10T10:49:37.987Z,30.93
2019-03-10T10:52:36.841Z,32.53
2019-03-10T10:55:45.564Z,30.33
2019-03-10T10:58:34.364Z,28.83
2019-03-10T11:01:25.401Z,29.20
2019-03-10T11:04:17.622Z,28.00
2019-03-10T11:07:07.078Z,28.27
2019-03-10T11:09:57.486Z,28.17
2019-03-10T11:12:51.291Z,28.10
2019-03-10T11:15:48.226Z,27.77
2019-03-10T11:18:39.349Z,27.73
2019-03-10T11:21:23.601Z,28.83
2019-03-10T11:24:07.334Z,28.53
2019-03-10T11:27:00.075Z,27.70
2019-03-10T11:29:56.915Z,29.27
2019-03-10T11:32:41.959Z,28.17
2019-03-10T11:35:31.056Z,30.73
2019-03-10T11:38:20.972Z,31.03
2019-03-10T11:41:44.248Z,28.33
2019-03-10T11:44:28.983Z,28.87
2019-03-10T11:47:27.059Z,27.67
2019-03-10T11:50:43.224Z,28.20
2019-03-10T11:53:45.919Z,28.17
2019-03-10T11:56:47.134Z,28.07
2019-03-10T11:59:46.863Z,28.10
2019-03-10T12:02:36.980Z,29.13
2019-03-10T12:05:19.814Z,27.93
2019-03-10T12:08:31.930Z,29.03
2019-03-10T12:11:07.181Z,31.60
2019-03-10T12:13:52.923Z,30.53
2019-03-10T12:16:31.195Z,28.80
2019-03-10T12:19:06.980Z,29.77
2019-03-10T12:21:42.014Z,28.30
2019-03-10T12:24:16.918Z,28.03
2019-03-10T12:26:51.804Z,27.93
2019-03-10T12:29:26.646Z,27.93
2019-03-10T12:32:03.831Z,28.87
2019-03-10T12:34:39.594Z,27.90
2019-03-10T12:37:18.943Z,27.60
2019-03-10T12:39:53.662Z,27.37
2019-03-10T12:42:28.601Z,27.83
2019-03-10T12:45:03.500Z,27.73
2019-03-10T12:47:39.362Z,27.87
2019-03-10T12:50:14.463Z,27.67
2019-03-10T12:52:49.277Z,28.40
2019-03-10T12:55:24.137Z,28.10
2019-03-10T12:57:58.964Z,28.13
2019-03-10T13:00:33.697Z,28.43
2019-03-10T13:03:08.615Z,28.03
2019-03-10T13:05:43.479Z,28.83
2019-03-10T13:08:18.310Z,28.57
2019-03-10T13:10:53.039Z,28.40
2019-03-10T13:13:27.912Z,28.10
2019-03-10T13:16:02.706Z,28.47
2019-03-10T13:18:37.459Z,28.20
2019-03-10T13:21:12.199Z,28.87
2019-03-10T13:23:47.063Z,29.18
2019-03-10T13:26:21.903Z,28.13
2019-03-10T13:28:56.658Z,28.50
2019-03-10T13:31:32.370Z,28.00
2019-03-10T13:34:07.276Z,28.40
2019-03-10T13:36:42.085Z,28.20
2019-03-10T13:39:16.810Z,28.23
2019-03-10T13:41:51.584Z,29.03
2019-03-10T13:44:26.407Z,28.52
2019-03-10T13:47:01.227Z,29.60
2019-03-10T13:49:35.991Z,28.73
2019-03-10T13:52:10.750Z,29.17
2019-03-10T13:54:45.482Z,28.77
2019-03-10T13:57:20.292Z,29.23
2019-03-10T13:59:55.087Z,28.83
2019-03-10T14:02:30.013Z,28.90
2019-03-10T14:05:05.718Z,28.30
2019-03-10T14:07:40.516Z,28.70
2019-03-10T14:10:15.395Z,28.87
2019-03-10T14:12:50.466Z,28.23
2019-03-10T14:15:25.727Z,28.35
2019-03-10T14:18:00.579Z,28.50
2019-03-10T14:20:35.408Z,28.65
2019-03-10T14:23:10.328Z,28.83
2019-03-10T14:25:45.247Z,28.52
2019-03-10T14:28:22.155Z,28.90
2019-03-10T14:30:56.749Z,28.77
2019-03-10T14:33:31.499Z,28.77
2019-03-10T14:36:06.376Z,29.27
2019-03-10T14:38:41.179Z,28.40
2019-03-10T14:41:15.994Z,28.63
2019-03-10T14:43:50.814Z,28.27
2019-03-10T14:46:25.682Z,28.35
2019-03-10T14:49:00.490Z,28.55
2019-03-10T14:51:35.310Z,28.70
2019-03-10T14:54:10.114Z,28.83
2019-03-10T14:56:44.954Z,29.47
2019-03-10T14:59:20.401Z,30.00
2019-03-10T15:01:55.447Z,28.73
2019-03-10T15:04:30.368Z,28.65
2019-03-10T15:07:05.213Z,28.67
2019-03-10T15:09:40.102Z,28.97
2019-03-10T15:12:14.966Z,28.33
2019-03-10T15:14:49.823Z,29.13
2019-03-10T15:17:24.668Z,29.93
2019-03-10T15:19:59.420Z,28.73
2019-03-10T15:22:34.184Z,29.17
2019-03-10T15:25:10.190Z,29.40
2019-03-10T15:27:45.074Z,29.43
2019-03-10T15:30:19.940Z,29.23
2019-03-10T15:32:54.802Z,29.60
2019-03-10T15:35:29.563Z,29.43
2019-03-10T15:38:04.379Z,29.00
2019-03-10T15:40:39.515Z,29.13
2019-03-10T15:43:14.334Z,29.30
2019-03-10T15:45:49.235Z,30.80
2019-03-10T15:48:23.971Z,29.17
2019-03-10T15:50:58.763Z,28.97
2019-03-10T15:53:33.619Z,28.80
2019-03-10T15:56:08.447Z,30.30
2019-03-10T15:58:43.459Z,29.67
2019-03-10T16:01:18.234Z,29.30
2019-03-10T16:03:53.083Z,29.93
2019-03-10T16:06:27.810Z,29.53
2019-03-10T16:09:02.701Z,29.30
2019-03-10T16:11:39.165Z,30.53
2019-03-10T16:14:14.154Z,29.30
2019-03-10T16:16:48.979Z,28.87
2019-03-10T16:19:23.848Z,29.30
2019-03-10T16:21:58.944Z,29.27
2019-03-10T16:24:35.294Z,29.40
2019-03-10T16:27:10.256Z,29.07
2019-03-10T16:29:45.078Z,29.30
2019-03-10T16:32:19.913Z,28.93
2019-03-10T16:34:54.795Z,29.70
2019-03-10T16:37:29.546Z,30.00
2019-03-10T16:40:05.495Z,28.53
2019-03-10T16:42:40.239Z,29.87
2019-03-10T16:45:17.099Z,29.80
2019-03-10T16:47:52.030Z,29.30
2019-03-10T16:50:28.057Z,29.07
2019-03-10T16:53:03.847Z,28.77
2019-03-10T16:55:38.595Z,29.53
2019-03-10T16:58:13.319Z,29.47
2019-03-10T17:00:48.247Z,29.20
2019-03-10T17:03:23.069Z,29.03
2019-03-10T17:05:57.870Z,29.97
2019-03-10T17:08:32.674Z,29.30
2019-03-10T17:11:07.587Z,29.90
2019-03-10T17:13:42.391Z,29.20
2019-03-10T17:16:17.214Z,29.43
2019-03-10T17:18:51.967Z,28.50
2019-03-10T17:21:26.707Z,29.60
2019-03-10T17:24:01.455Z,29.03
2019-03-10T17:26:36.270Z,29.00
2019-03-10T17:29:11.099Z,29.47
2019-03-10T17:31:45.836Z,29.23
2019-03-10T17:34:20.574Z,29.70
2019-03-10T17:36:55.447Z,29.40
2019-03-10T17:39:36.109Z,30.40
2019-03-10T17:42:10.995Z,30.17
2019-03-10T17:44:45.927Z,30.63
2019-03-10T17:47:20.835Z,30.07
2019-03-10T17:49:55.714Z,28.83
2019-03-10T17:52:30.483Z,29.57
2019-03-10T17:55:06.419Z,29.57
2019-03-10T17:57:41.215Z,29.60
2019-03-10T18:00:17.798Z,28.93
2019-03-10T18:02:52.687Z,28.57
2019-03-10T18:05:29.690Z,29.20
2019-03-10T18:08:04.511Z,27.80
2019-03-10T18:10:39.289Z,28.27
2019-03-10T18:13:14.296Z,28.10
2019-03-10T18:15:49.119Z,28.27
2019-03-10T18:18:23.922Z,27.40
2019-03-10T18:20:59.823Z,27.90
2019-03-10T18:23:34.779Z,28.80
2019-03-10T18:26:10.123Z,28.30
2019-03-10T18:28:46.487Z,28.13
2019-03-10T18:31:22.313Z,28.00
2019-03-10T18:33:57.121Z,28.33
2019-03-10T18:36:33.752Z,27.53
2019-03-10T18:39:08.802Z,29.20
2019-03-10T18:41:45.194Z,28.00
2019-03-10T18:44:19.944Z,28.47
2019-03-10T18:46:55.538Z,27.97
2019-03-10T18:49:31.902Z,28.17
2019-03-10T18:52:06.771Z,28.53
2019-03-10T18:54:41.523Z,28.83
2019-03-10T18:57:24.186Z,28.43
2019-03-10T18:59:59.044Z,28.23
2019-03-10T19:02:33.870Z,28.00
2019-03-10T19:05:08.832Z,28.30
2019-03-10T19:07:43.596Z,28.63
2019-03-10T19:10:18.403Z,28.03
2019-03-10T19:12:53.463Z,28.53
2019-03-10T19:15:29.092Z,28.90
2019-03-10T19:18:04.709Z,28.77
2019-03-10T19:20:39.904Z,29.13
2019-03-10T19:23:14.706Z,29.63
2019-03-10T19:25:49.596Z,28.63
2019-03-10T19:28:24.342Z,28.70
2019-03-10T19:30:59.228Z,30.23
2019-03-10T19:33:34.381Z,30.03
2019-03-10T19:36:09.175Z,30.03
2019-03-10T19:38:44.112Z,28.87
2019-03-10T19:41:19.151Z,29.27
2019-03-10T19:43:53.982Z,29.03
2019-03-10T19:46:29.547Z,29.67
2019-03-10T19:49:04.594Z,28.63
2019-03-10T19:51:39.976Z,29.27
2019-03-10T19:54:15.131Z,28.97
2019-03-10T19:56:50.303Z,28.83
2019-03-10T19:59:26.270Z,28.97
2019-03-10T20:02:01.110Z,29.70
2019-03-10T20:04:36.106Z,29.70
2019-03-10T20:07:10.905Z,29.07
2019-03-10T20:09:45.701Z,29.57
2019-03-10T20:12:20.597Z,28.63
2019-03-10T20:14:55.362Z,29.17
2019-03-10T20:17:30.166Z,28.20
2019-03-10T20:20:05.960Z,28.60
2019-03-10T20:22:40.826Z,28.50
2019-03-10T20:25:15.803Z,28.47
2019-03-10T20:27:51.549Z,29.07
2019-03-10T20:30:26.767Z,28.60
2019-03-10T20:33:01.591Z,28.40
2019-03-10T20:35:36.394Z,28.60
2019-03-10T20:38:11.206Z,28.77
2019-03-10T20:40:45.932Z,27.90
2019-03-10T20:43:20.766Z,28.33
2019-03-10T20:45:55.567Z,29.30
2019-03-10T20:48:30.395Z,29.17
2019-03-10T20:51:05.440Z,28.57
2019-03-10T20:53:41.562Z,29.70
2019-03-10T20:56:16.294Z,29.27
2019-03-10T20:58:51.107Z,29.33
2019-03-10T21:01:26.043Z,28.57
2019-03-10T21:04:01.537Z,28.80
2019-03-10T21:06:37.478Z,28.63
2019-03-10T21:09:14.562Z,28.33
2019-03-10T21:11:55.383Z,28.23
2019-03-10T21:14:30.141Z,28.50
2019-03-10T21:17:04.961Z,28.37
2019-03-10T21:19:39.746Z,28.13
2019-03-10T21:22:14.602Z,28.47
2019-03-10T21:24:49.408Z,28.83
2019-03-10T21:27:24.246Z,28.40
2019-03-10T21:29:58.978Z,28.70
2019-03-10T21:32:33.800Z,28.90
2019-03-10T21:35:17.212Z,29.80
2019-03-10T21:37:45.255Z,28.40
2019-03-10T21:40:21.683Z,28.43
2019-03-10T21:42:56.498Z,28.40
2019-03-10T21:45:31.451Z,28.57
2019-03-10T21:48:06.434Z,28.47
2019-03-10T21:50:41.171Z,28.57
2019-03-10T21:53:16.043Z,28.87
2019-03-10T21:55:50.782Z,28.70
2019-03-10T21:58:26.930Z,27.90
2019-03-10T22:01:02.488Z,29.17
2019-03-10T22:03:37.295Z,28.93
2019-03-10T22:06:12.043Z,28.47
2019-03-10T22:08:52.786Z,28.27
2019-03-10T22:11:27.582Z,27.63
2019-03-10T22:14:02.407Z,27.90
2019-03-10T22:16:37.161Z,28.03
2019-03-10T22:19:22.193Z,28.50
2019-03-10T22:21:48.411Z,27.80
2019-03-10T22:24:23.214Z,27.83
2019-03-10T22:26:58.026Z,27.57
2019-03-10T22:29:32.830Z,27.47
2019-03-10T22:32:07.550Z,28.27
2019-03-10T22:34:42.366Z,27.93
2019-03-10T22:37:17.099Z,27.23
2019-03-10T22:39:51.923Z,27.57
2019-03-10T22:42:26.707Z,28.10
2019-03-10T22:45:01.436Z,27.67
2019-03-10T22:47:36.251Z,27.60
2019-03-10T22:50:11.859Z,28.00
2019-03-10T22:52:47.748Z,28.20
2019-03-10T22:55:22.565Z,28.57
2019-03-10T22:57:57.399Z,28.30
2019-03-10T23:00:44.349Z,27.70
2019-03-10T23:03:20.807Z,28.63
2019-03-10T23:05:55.614Z,28.07
2019-03-10T23:08:30.338Z,28.07
2019-03-10T23:11:05.155Z,28.00
2019-03-10T23:13:39.882Z,27.47
2019-03-10T23:16:14.688Z,27.60
2019-03-10T23:18:49.473Z,27.60
2019-03-10T23:21:24.316Z,28.47
2019-03-10T23:23:59.127Z,28.03
2019-03-10T23:26:34.702Z,28.30
2019-03-10T23:29:09.469Z,27.73
2019-03-10T23:31:44.197Z,27.97
2019-03-10T23:34:18.939Z,28.20
2019-03-10T23:36:53.663Z,28.37
2019-03-10T23:39:28.491Z,27.57
2019-03-10T23:42:03.304Z,28.17
2019-03-10T23:44:38.019Z,28.00
2019-03-10T23:47:12.758Z,27.67
2019-03-10T23:49:47.574Z,27.67
2019-03-10T23:52:22.388Z,28.07
2019-03-10T23:54:57.210Z,28.23
2019-03-10T23:57:32.022Z,28.23
